createdAt,value
2022-11-16T00:00:08.540Z,13.65
2022-11-16T00:01:04.678Z,15.15
2022-11-16T00:02:06.535Z,13.64
2022-11-16T00:03:08.399Z,13.55
2022-11-16T00:04:10.256Z,12.15
2022-11-16T00:05:12.050Z,13.01
2022-11-16T00:06:14.004Z,12.46
2022-11-16T00:07:15.924Z,14.19
2022-11-16T00:08:17.788Z,12.11
2022-11-16T00:09:19.628Z,10.99
2022-11-16T00:10:21.438Z,11.70
2022-11-16T00:11:23.284Z,10.74
2022-11-16T00:12:25.100Z,11.92
2022-11-16T00:13:26.905Z,10.94
2022-11-16T00:14:28.769Z,12.18
2022-11-16T00:15:30.579Z,10.45
2022-11-16T00:16:32.460Z,11.76
2022-11-16T00:17:34.276Z,12.61
2022-11-16T00:18:36.292Z,10.91
2022-11-16T00:19:38.199Z,12.43
2022-11-16T00:20:39.987Z,11.27
2022-11-16T00:21:41.897Z,12.60
2022-11-16T00:22:43.747Z,13.73
2022-11-16T00:23:45.591Z,10.83
2022-11-16T00:24:47.460Z,11.68
2022-11-16T00:25:49.301Z,11.75
2022-11-16T00:26:51.278Z,11.91
2022-11-16T00:27:53.096Z,12.64
2022-11-16T00:28:54.956Z,10.51
2022-11-16T00:29:56.813Z,11.18
2022-11-16T00:30:58.624Z,10.19
2022-11-16T00:32:00.551Z,12.52
2022-11-16T00:33:02.418Z,12.29
2022-11-16T00:34:04.234Z,12.17
2022-11-16T00:35:06.056Z,9.62
2022-11-16T00:36:08.161Z,11.18
2022-11-16T00:37:10.013Z,12.73
2022-11-16T00:38:11.884Z,13.59
2022-11-16T00:39:13.733Z,12.25
2022-11-16T00:40:15.590Z,11.39
2022-11-16T00:41:17.434Z,11.87
2022-11-16T00:42:19.313Z,11.06
2022-11-16T00:43:21.125Z,10.73
2022-11-16T00:44:22.931Z,12.31
2022-11-16T00:45:24.898Z,13.89
2022-11-16T00:46:26.739Z,12.19
2022-11-16T00:47:28.675Z,12.27
2022-11-16T00:48:30.707Z,11.77
2022-11-16T00:49:32.691Z,11.85
2022-11-16T00:50:34.633Z,16.20
2022-11-16T00:51:36.451Z,11.36
2022-11-16T00:52:38.552Z,12.08
2022-11-16T00:53:40.357Z,11.82
2022-11-16T00:54:42.185Z,11.56
2022-11-16T00:55:43.993Z,12.09
2022-11-16T00:56:45.793Z,13.19
2022-11-16T00:57:47.697Z,12.75
2022-11-16T00:58:49.543Z,12.41
2022-11-16T00:59:51.404Z,11.69
2022-11-16T01:00:53.261Z,14.96
2022-11-16T01:01:55.156Z,16.05
2022-11-16T01:02:57.151Z,12.81
2022-11-16T01:03:58.952Z,11.99
2022-11-16T01:05:00.803Z,12.86
2022-11-16T01:06:02.707Z,12.89
2022-11-16T01:07:04.612Z,13.56
2022-11-16T01:08:06.570Z,13.77
2022-11-16T01:09:08.359Z,14.60
2022-11-16T01:10:10.529Z,13.77
2022-11-16T01:11:12.369Z,13.94
2022-11-16T01:12:14.171Z,16.23
2022-11-16T01:13:16.055Z,11.49
2022-11-16T01:14:17.918Z,11.17
2022-11-16T01:15:19.737Z,11.58
2022-11-16T01:16:21.590Z,10.69
2022-11-16T01:17:23.425Z,10.37
2022-11-16T01:18:25.336Z,10.07
2022-11-16T01:19:27.136Z,9.41
2022-11-16T01:20:28.944Z,11.09
2022-11-16T01:21:30.760Z,10.45
2022-11-16T01:22:32.629Z,11.61
2022-11-16T01:23:34.510Z,11.57
2022-11-16T01:24:36.324Z,11.67
2022-11-16T01:25:38.138Z,8.75
2022-11-16T01:26:40.003Z,13.22
2022-11-16T01:27:41.800Z,11.77
2022-11-16T01:28:43.650Z,11.60
2022-11-16T01:29:45.483Z,13.19
2022-11-16T01:30:47.278Z,12.33
2022-11-16T01:31:49.104Z,10.27
2022-11-16T01:32:50.928Z,14.73
2022-11-16T01:33:52.835Z,13.50
2022-11-16T01:34:54.652Z,11.85
2022-11-16T01:35:56.540Z,12.57
2022-11-16T01:36:58.341Z,14.01
2022-11-16T01:38:00.211Z,13.16
2022-11-16T01:39:02.090Z,12.60
2022-11-16T01:40:03.950Z,12.28
2022-11-16T01:41:05.796Z,12.85
2022-11-16T01:42:07.604Z,10.14
2022-11-16T01:43:09.398Z,13.79
2022-11-16T01:44:11.254Z,10.02
2022-11-16T01:45:13.077Z,9.96
2022-11-16T01:46:14.936Z,9.92
2022-11-16T01:47:16.778Z,13.23
2022-11-16T01:48:18.695Z,9.93
2022-11-16T01:49:20.976Z,11.56
2022-11-16T01:50:22.785Z,11.19
2022-11-16T01:51:24.614Z,11.46
2022-11-16T01:52:26.453Z,10.33
2022-11-16T01:53:28.264Z,11.95
2022-11-16T01:54:30.157Z,11.36
2022-11-16T01:55:31.968Z,12.28
2022-11-16T01:56:33.805Z,11.83
2022-11-16T01:57:35.676Z,10.17
2022-11-16T01:58:37.468Z,11.21
2022-11-16T01:59:39.361Z,10.55
2022-11-16T02:00:41.219Z,12.31
2022-11-16T02:01:43.154Z,9.93
2022-11-16T02:02:44.940Z,11.03
2022-11-16T02:03:46.822Z,14.72
2022-11-16T02:04:48.732Z,13.55
2022-11-16T02:05:50.548Z,13.31
2022-11-16T02:06:52.419Z,14.95
2022-11-16T02:07:54.319Z,12.75
2022-11-16T02:08:56.184Z,12.01
2022-11-16T02:09:58.034Z,11.51
2022-11-16T02:10:59.833Z,13.41
2022-11-16T02:12:01.687Z,11.49
2022-11-16T02:13:03.553Z,13.15
2022-11-16T02:14:05.382Z,12.64
2022-11-16T02:15:07.230Z,11.06
2022-11-16T02:16:09.349Z,13.32
2022-11-16T02:17:11.189Z,12.96
2022-11-16T02:18:13.015Z,15.32
2022-11-16T02:19:14.810Z,12.48
2022-11-16T02:20:16.772Z,13.39
2022-11-16T02:21:18.585Z,15.42
2022-11-16T02:22:20.464Z,13.55
2022-11-16T02:23:22.682Z,18.47
2022-11-16T02:24:24.545Z,16.39
2022-11-16T02:25:26.452Z,13.70
2022-11-16T02:26:28.305Z,13.67
2022-11-16T02:27:30.127Z,11.61
2022-11-16T02:28:32.233Z,14.74
2022-11-16T02:29:34.184Z,13.98
2022-11-16T02:30:36.037Z,15.90
2022-11-16T02:31:37.884Z,13.50
2022-11-16T02:32:39.736Z,13.86
2022-11-16T02:33:41.564Z,14.01
2022-11-16T02:34:43.423Z,14.76
2022-11-16T02:35:45.349Z,15.62
2022-11-16T02:36:47.265Z,13.93
2022-11-16T02:37:49.102Z,14.81
2022-11-16T02:38:50.937Z,16.36
2022-11-16T02:39:52.787Z,14.31
2022-11-16T02:40:54.623Z,12.87
2022-11-16T02:41:56.452Z,14.85
2022-11-16T02:42:58.329Z,13.22
2022-11-16T02:44:00.155Z,15.96
2022-11-16T02:45:02.090Z,18.68
2022-11-16T02:46:04.062Z,12.75
2022-11-16T02:47:05.870Z,14.49
2022-11-16T02:48:07.736Z,14.27
2022-11-16T02:49:09.570Z,14.19
2022-11-16T02:50:11.582Z,13.20
2022-11-16T02:51:13.544Z,17.33
2022-11-16T02:52:15.335Z,15.36
2022-11-16T02:53:17.228Z,14.21
2022-11-16T02:54:19.024Z,15.54
2022-11-16T02:55:20.845Z,14.87
2022-11-16T02:56:22.733Z,14.92
2022-11-16T02:57:24.667Z,15.40
2022-11-16T02:58:26.483Z,14.43
2022-11-16T02:59:28.282Z,16.74
2022-11-16T03:00:30.133Z,15.43
2022-11-16T03:01:32.056Z,15.98
2022-11-16T03:02:33.872Z,18.98
2022-11-16T03:03:35.659Z,17.29
2022-11-16T03:04:37.470Z,15.42
2022-11-16T03:05:39.326Z,16.54
2022-11-16T03:06:41.239Z,18.26
2022-11-16T03:07:43.059Z,16.63
2022-11-16T03:08:44.866Z,19.29
2022-11-16T03:09:46.649Z,14.85
2022-11-16T03:10:48.467Z,15.84
2022-11-16T03:11:50.311Z,15.54
2022-11-16T03:12:52.102Z,16.09
2022-11-16T03:13:53.913Z,18.79
2022-11-16T03:14:55.726Z,20.11
2022-11-16T03:15:57.527Z,17.38
2022-11-16T03:16:59.436Z,17.51
2022-11-16T03:18:01.241Z,16.13
2022-11-16T03:19:03.062Z,17.42
2022-11-16T03:20:04.991Z,16.75
2022-11-16T03:21:06.778Z,18.04
2022-11-16T03:22:08.720Z,18.13
2022-11-16T03:23:10.530Z,16.67
2022-11-16T03:24:12.349Z,17.38
2022-11-16T03:25:14.172Z,15.14
2022-11-16T03:26:15.977Z,17.76
2022-11-16T03:27:17.793Z,17.19
2022-11-16T03:28:19.602Z,15.29
2022-11-16T03:29:21.421Z,18.39
2022-11-16T03:30:23.993Z,20.28
2022-11-16T03:31:25.943Z,22.22
2022-11-16T03:32:27.775Z,25.68
2022-11-16T03:33:29.566Z,19.69
2022-11-16T03:34:31.409Z,19.37
2022-11-16T03:35:33.239Z,16.85
2022-11-16T03:36:35.150Z,18.96
2022-11-16T03:37:37.034Z,19.10
2022-11-16T03:38:38.859Z,24.24
2022-11-16T03:39:42.478Z,26.57
2022-11-16T03:40:44.288Z,27.29
2022-11-16T03:41:46.096Z,25.31
2022-11-16T03:42:47.964Z,26.80
2022-11-16T03:43:49.773Z,27.73
2022-11-16T03:44:51.601Z,26.22
2022-11-16T03:45:53.405Z,24.80
2022-11-16T03:46:55.222Z,24.74
2022-11-16T03:47:57.081Z,22.47
2022-11-16T03:48:58.898Z,24.07
2022-11-16T03:50:00.729Z,22.84
2022-11-16T03:51:02.677Z,19.73
2022-11-16T03:52:04.484Z,23.22
2022-11-16T03:53:06.433Z,23.18
2022-11-16T03:54:08.217Z,25.05
2022-11-16T03:55:10.062Z,29.32
2022-11-16T03:56:11.876Z,35.74
2022-11-16T03:57:13.693Z,30.12
2022-11-16T03:58:15.575Z,26.50
2022-11-16T03:59:17.359Z,26.17
2022-11-16T04:00:19.271Z,26.59
2022-11-16T04:01:21.114Z,25.73
2022-11-16T04:02:22.880Z,20.57
2022-11-16T04:03:24.714Z,22.04
2022-11-16T04:04:26.612Z,22.07
2022-11-16T04:05:28.407Z,22.64
2022-11-16T04:06:30.219Z,23.25
2022-11-16T04:07:32.102Z,20.98
2022-11-16T04:08:34.249Z,23.09
2022-11-16T04:09:36.175Z,21.57
2022-11-16T04:10:38.086Z,25.69
2022-11-16T04:11:39.883Z,23.57
2022-11-16T04:12:41.682Z,22.21
2022-11-16T04:13:43.548Z,23.59
2022-11-16T04:14:45.340Z,18.85
2022-11-16T04:15:47.160Z,22.21
2022-11-16T04:16:48.983Z,20.59
2022-11-16T04:17:50.807Z,18.43
2022-11-16T04:18:52.661Z,21.59
2022-11-16T04:19:58.184Z,19.58
2022-11-16T04:20:58.082Z,17.87
2022-11-16T04:21:59.912Z,19.67
2022-11-16T04:23:01.724Z,17.21
2022-11-16T04:24:03.617Z,19.49
2022-11-16T04:25:05.441Z,20.22
2022-11-16T04:26:08.050Z,19.53
2022-11-16T04:27:09.837Z,20.25
2022-11-16T04:28:11.656Z,16.11
2022-11-16T04:29:13.488Z,18.49
2022-11-16T04:30:15.308Z,20.67
2022-11-16T04:31:17.141Z,17.90
2022-11-16T04:32:18.955Z,18.06
2022-11-16T04:33:20.741Z,19.93
2022-11-16T04:34:22.591Z,21.59
2022-11-16T04:35:24.424Z,20.45
2022-11-16T04:36:26.237Z,19.92
2022-11-16T04:37:28.047Z,22.70
2022-11-16T04:38:29.870Z,19.43
2022-11-16T04:39:31.769Z,19.75
2022-11-16T04:40:33.678Z,18.71
2022-11-16T04:41:35.488Z,18.91
2022-11-16T04:42:37.295Z,19.51
2022-11-16T04:43:39.227Z,19.69
2022-11-16T04:44:41.067Z,20.52
2022-11-16T04:45:42.885Z,20.01
2022-11-16T04:46:44.696Z,19.35
2022-11-16T04:47:46.523Z,20.94
2022-11-16T04:48:48.339Z,18.56
2022-11-16T04:49:50.177Z,18.84
2022-11-16T04:50:52.079Z,19.95
2022-11-16T04:51:53.895Z,22.23
2022-11-16T04:52:55.703Z,23.23
2022-11-16T04:53:57.529Z,24.89
2022-11-16T04:54:59.465Z,24.81
2022-11-16T04:56:01.272Z,19.89
2022-11-16T04:57:03.053Z,22.69
2022-11-16T04:58:04.877Z,20.70
2022-11-16T04:59:06.683Z,25.41
2022-11-16T05:00:09.458Z,19.23
2022-11-16T05:01:11.338Z,22.13
2022-11-16T05:02:13.082Z,20.47
2022-11-16T05:03:14.930Z,19.97
2022-11-16T05:04:16.725Z,18.30
2022-11-16T05:05:18.559Z,19.09
2022-11-16T05:06:20.381Z,18.92
2022-11-16T05:07:22.324Z,20.91
2022-11-16T05:08:24.152Z,20.54
2022-11-16T05:09:25.951Z,21.83
2022-11-16T05:10:27.984Z,22.86
2022-11-16T05:11:29.786Z,22.80
2022-11-16T05:12:31.613Z,22.75
2022-11-16T05:13:33.433Z,21.79
2022-11-16T05:14:35.220Z,23.65
2022-11-16T05:15:37.072Z,22.48
2022-11-16T05:16:38.928Z,21.57
2022-11-16T05:17:40.727Z,21.49
2022-11-16T05:18:42.548Z,21.76
2022-11-16T05:19:44.362Z,22.11
2022-11-16T05:20:46.206Z,24.59
2022-11-16T05:21:48.013Z,22.31
2022-11-16T05:22:49.828Z,19.29
2022-11-16T05:23:51.634Z,22.67
2022-11-16T05:24:53.454Z,25.06
2022-11-16T05:25:55.369Z,22.58
2022-11-16T05:26:57.180Z,20.67
2022-11-16T05:27:58.981Z,19.09
2022-11-16T05:29:01.004Z,21.94
2022-11-16T05:30:02.822Z,20.84
2022-11-16T05:31:04.667Z,19.62
2022-11-16T05:32:06.472Z,22.91
2022-11-16T05:33:08.282Z,20.46
2022-11-16T05:34:10.109Z,19.57
2022-11-16T05:35:11.920Z,19.98
2022-11-16T05:36:13.761Z,24.59
2022-11-16T05:37:15.578Z,23.67
2022-11-16T05:38:17.396Z,20.13
2022-11-16T05:39:19.224Z,19.72
2022-11-16T05:40:21.028Z,19.36
2022-11-16T05:41:23.096Z,18.84
2022-11-16T05:42:24.896Z,18.64
2022-11-16T05:43:26.726Z,21.79
2022-11-16T05:44:28.535Z,20.82
2022-11-16T05:45:30.333Z,23.62
2022-11-16T05:46:32.268Z,24.18
2022-11-16T05:47:34.101Z,26.98
2022-11-16T05:48:36.275Z,28.61
2022-11-16T05:49:38.221Z,26.39
2022-11-16T05:50:42.955Z,23.21
2022-11-16T05:51:43.689Z,22.49
2022-11-16T05:52:45.488Z,22.66
2022-11-16T05:53:47.306Z,22.21
2022-11-16T05:54:49.109Z,22.73
2022-11-16T05:55:50.950Z,24.68
2022-11-16T05:56:52.859Z,23.50
2022-11-16T05:57:54.672Z,22.43
2022-11-16T05:58:56.456Z,21.47
2022-11-16T05:59:58.274Z,23.23
2022-11-16T06:01:00.193Z,21.07
2022-11-16T06:02:02.016Z,23.01
2022-11-16T06:03:03.881Z,24.03
2022-11-16T06:04:05.748Z,24.16
2022-11-16T06:05:07.607Z,27.19
2022-11-16T06:06:09.587Z,25.43
2022-11-16T06:07:11.477Z,25.87
2022-11-16T06:08:13.252Z,23.51
2022-11-16T06:09:15.050Z,25.61
2022-11-16T06:10:16.854Z,25.07
2022-11-16T06:11:18.653Z,26.05
2022-11-16T06:12:20.593Z,23.75
2022-11-16T06:13:22.416Z,27.32
2022-11-16T06:14:24.221Z,25.17
2022-11-16T06:15:26.041Z,23.28
2022-11-16T06:16:27.950Z,22.27
2022-11-16T06:17:29.821Z,23.74
2022-11-16T06:18:32.086Z,21.42
2022-11-16T06:19:34.103Z,20.45
2022-11-16T06:20:35.902Z,21.46
2022-11-16T06:21:37.697Z,23.07
2022-11-16T06:22:39.575Z,20.72
2022-11-16T06:23:41.377Z,22.12
2022-11-16T06:24:43.179Z,19.84
2022-11-16T06:25:45.003Z,21.64
2022-11-16T06:26:46.787Z,19.35
2022-11-16T06:27:48.735Z,18.07
2022-11-16T06:28:50.591Z,20.71
2022-11-16T06:29:52.405Z,22.15
2022-11-16T06:30:54.196Z,26.42
2022-11-16T06:31:56.032Z,18.77
2022-11-16T06:32:57.897Z,20.16
2022-11-16T06:33:59.712Z,20.52
2022-11-16T06:35:01.526Z,21.56
2022-11-16T06:36:03.409Z,20.39
2022-11-16T06:37:05.280Z,22.50
2022-11-16T06:38:07.125Z,20.79
2022-11-16T06:39:09.033Z,18.68
2022-11-16T06:40:10.819Z,16.71
2022-11-16T06:41:12.632Z,19.17
2022-11-16T06:42:14.571Z,16.32
2022-11-16T06:43:16.456Z,16.01
2022-11-16T06:44:18.281Z,14.07
2022-11-16T06:45:20.137Z,17.05
2022-11-16T06:46:22.049Z,13.99
2022-11-16T06:47:23.877Z,14.62
2022-11-16T06:48:25.758Z,14.70
2022-11-16T06:49:27.617Z,13.54
2022-11-16T06:50:29.487Z,15.09
2022-11-16T06:51:31.323Z,14.49
2022-11-16T06:52:33.147Z,14.32
2022-11-16T06:53:34.998Z,15.27
2022-11-16T06:54:36.775Z,14.12
2022-11-16T06:55:38.636Z,15.12
2022-11-16T06:56:40.563Z,16.85
2022-11-16T06:57:42.395Z,12.98
2022-11-16T06:58:44.402Z,16.16
2022-11-16T06:59:46.227Z,15.99
2022-11-16T07:00:48.117Z,15.79
2022-11-16T07:01:50.028Z,17.64
2022-11-16T07:02:51.866Z,18.99
2022-11-16T07:03:53.720Z,22.25
2022-11-16T07:05:00.606Z,19.20
2022-11-16T07:05:59.160Z,18.99
2022-11-16T07:07:00.989Z,19.10
2022-11-16T07:08:02.848Z,15.39
2022-11-16T07:09:04.698Z,17.73
2022-11-16T07:10:07.011Z,15.69
2022-11-16T07:11:08.816Z,15.97
2022-11-16T07:12:10.664Z,15.71
2022-11-16T07:13:12.492Z,13.60
2022-11-16T07:14:14.356Z,14.22
2022-11-16T07:15:16.159Z,15.31
2022-11-16T07:16:18.022Z,14.21
2022-11-16T07:17:19.839Z,15.06
2022-11-16T07:18:21.643Z,15.09
2022-11-16T07:19:23.510Z,15.08
2022-11-16T07:20:25.308Z,15.21
2022-11-16T07:21:27.209Z,14.29
2022-11-16T07:22:29.033Z,15.12
2022-11-16T07:23:30.865Z,15.57
2022-11-16T07:24:32.748Z,14.81
2022-11-16T07:25:34.545Z,13.04
2022-11-16T07:26:36.363Z,14.04
2022-11-16T07:27:38.178Z,11.69
2022-11-16T07:28:44.893Z,13.74
2022-11-16T07:29:43.674Z,17.13
2022-11-16T07:30:45.616Z,15.17
2022-11-16T07:31:47.438Z,11.33
2022-11-16T07:32:49.261Z,11.21
2022-11-16T07:33:51.067Z,11.60
2022-11-16T07:34:52.915Z,12.45
2022-11-16T07:35:54.724Z,10.36
2022-11-16T07:36:56.516Z,11.95
2022-11-16T07:37:58.312Z,13.35
2022-11-16T07:39:00.124Z,14.14
2022-11-16T07:40:01.981Z,12.49
2022-11-16T07:41:03.773Z,10.85
2022-11-16T07:42:05.590Z,10.13
2022-11-16T07:43:07.782Z,13.86
2022-11-16T07:44:12.039Z,10.18
2022-11-16T07:45:13.419Z,10.10
2022-11-16T07:47:19.066Z,14.65
2022-11-16T07:48:20.878Z,15.64
2022-11-16T07:49:22.680Z,13.39
2022-11-16T07:50:24.608Z,14.29
2022-11-16T07:51:26.480Z,14.65
2022-11-16T07:52:28.290Z,13.52
2022-11-16T07:53:30.085Z,12.91
2022-11-16T07:54:31.800Z,11.35
2022-11-16T07:55:33.623Z,13.75
2022-11-16T07:56:35.323Z,13.23
2022-11-16T07:57:37.175Z,13.69
2022-11-16T07:58:39.010Z,12.28
2022-11-16T07:59:40.803Z,14.11
2022-11-16T08:00:42.688Z,13.56
2022-11-16T08:01:44.590Z,15.03
2022-11-16T08:02:46.343Z,18.05
2022-11-16T08:03:48.168Z,16.74
2022-11-16T08:04:49.981Z,19.39
2022-11-16T08:05:51.895Z,15.97
2022-11-16T08:06:53.833Z,20.47
2022-11-16T08:08:13.540Z,14.02
2022-11-16T08:09:15.355Z,15.98
2022-11-16T08:10:17.263Z,15.11
2022-11-16T08:11:19.168Z,15.67
2022-11-16T08:12:21.007Z,13.81
2022-11-16T08:13:22.921Z,14.14
2022-11-16T08:14:24.741Z,14.21
2022-11-16T08:15:26.528Z,14.64
2022-11-16T08:16:28.432Z,15.21
2022-11-16T08:17:30.235Z,14.77
2022-11-16T08:18:32.422Z,14.59
2022-11-16T08:19:34.480Z,16.04
2022-11-16T08:20:36.414Z,16.81
2022-11-16T08:21:38.311Z,15.48
2022-11-16T08:22:40.130Z,15.09
2022-11-16T08:23:44.009Z,16.57
2022-11-16T08:24:45.842Z,16.66
2022-11-16T08:25:47.562Z,16.62
2022-11-16T08:26:49.402Z,13.47
2022-11-16T08:27:51.198Z,14.49
2022-11-16T08:28:53.013Z,16.27
2022-11-16T08:29:54.842Z,15.60
2022-11-16T08:30:56.631Z,14.77
2022-11-16T08:31:58.574Z,16.10
2022-11-16T08:33:00.382Z,20.48
2022-11-16T08:34:02.213Z,21.50
2022-11-16T08:35:04.038Z,20.46
2022-11-16T08:36:12.528Z,22.22
2022-11-16T08:37:10.213Z,22.09
2022-11-16T08:38:11.999Z,20.01
2022-11-16T08:39:13.823Z,21.71
2022-11-16T08:40:15.747Z,19.18
2022-11-16T08:41:17.592Z,15.70
2022-11-16T08:42:19.435Z,20.43
2022-11-16T08:43:21.249Z,23.33
2022-11-16T08:44:23.074Z,21.12
2022-11-16T08:45:24.897Z,16.52
2022-11-16T08:46:26.706Z,18.13
2022-11-16T08:47:28.689Z,15.08
2022-11-16T08:48:32.507Z,17.07
2022-11-16T08:49:34.603Z,18.41
2022-11-16T08:50:55.451Z,19.91
2022-11-16T08:51:40.014Z,20.33
2022-11-16T08:52:41.883Z,20.25
2022-11-16T08:53:43.702Z,17.30
2022-11-16T08:54:45.499Z,19.74
2022-11-16T08:55:47.376Z,17.76
2022-11-16T08:56:51.008Z,16.07
2022-11-16T08:57:52.850Z,15.11
2022-11-16T08:58:58.367Z,15.37
2022-11-16T08:59:58.304Z,14.32
2022-11-16T09:01:00.100Z,15.43
2022-11-16T09:02:02.043Z,16.39
2022-11-16T09:03:04.102Z,17.19
2022-11-16T09:04:05.910Z,13.65
2022-11-16T09:05:07.723Z,18.84
2022-11-16T09:06:10.105Z,15.49
2022-11-16T09:07:11.935Z,20.08
2022-11-16T09:08:13.713Z,16.99
2022-11-16T09:09:15.534Z,14.73
2022-11-16T09:10:17.334Z,17.25
2022-11-16T09:11:19.169Z,19.64
2022-11-16T09:12:20.972Z,19.39
2022-11-16T09:13:22.830Z,16.62
2022-11-16T09:14:24.713Z,15.11
2022-11-16T09:15:26.522Z,18.68
2022-11-16T09:16:28.339Z,17.90
2022-11-16T09:17:30.147Z,14.49
2022-11-16T09:18:32.496Z,16.11
2022-11-16T09:19:34.568Z,14.41
2022-11-16T09:20:36.402Z,14.86
2022-11-16T09:21:38.230Z,14.75
2022-11-16T09:22:40.059Z,14.80
2022-11-16T09:23:42.943Z,15.71
2022-11-16T09:24:44.757Z,16.63
2022-11-16T09:25:46.575Z,19.15
2022-11-16T09:26:48.497Z,17.01
2022-11-16T09:27:50.307Z,15.35
2022-11-16T09:28:52.169Z,17.79
2022-11-16T09:29:53.979Z,16.68
2022-11-16T09:30:55.919Z,15.42
2022-11-16T09:31:57.729Z,13.64
2022-11-16T09:32:59.535Z,19.49
2022-11-16T09:34:01.506Z,17.09
2022-11-16T09:35:03.297Z,17.98
2022-11-16T09:36:05.220Z,15.44
2022-11-16T09:37:07.037Z,18.37
2022-11-16T09:38:08.870Z,21.33
2022-11-16T09:39:29.501Z,28.10
2022-11-16T09:40:15.752Z,26.69
2022-11-16T09:41:17.574Z,20.25
2022-11-16T09:42:19.387Z,16.73
2022-11-16T09:43:21.200Z,20.27
2022-11-16T09:44:23.067Z,20.20
2022-11-16T09:45:24.857Z,16.81
2022-11-16T09:46:26.676Z,18.25
2022-11-16T09:47:28.575Z,20.09
2022-11-16T09:48:30.397Z,21.65
2022-11-16T09:49:32.339Z,20.47
2022-11-16T09:50:34.197Z,21.27
2022-11-16T09:51:35.997Z,23.46
2022-11-16T09:52:37.809Z,20.77
2022-11-16T09:53:39.646Z,20.87
2022-11-16T09:54:41.580Z,18.28
2022-11-16T09:55:43.404Z,18.14
2022-11-16T09:56:45.203Z,17.10
2022-11-16T09:57:47.019Z,18.61
2022-11-16T09:58:48.942Z,16.07
2022-11-16T09:59:50.783Z,18.66
2022-11-16T10:00:52.618Z,12.44
2022-11-16T10:01:54.419Z,13.82
2022-11-16T10:02:56.244Z,12.01
2022-11-16T10:04:00.335Z,14.39
2022-11-16T10:05:02.260Z,12.05
2022-11-16T10:06:04.099Z,12.35
2022-11-16T10:07:05.908Z,12.41
2022-11-16T10:08:07.717Z,15.08
2022-11-16T10:09:09.553Z,13.60
2022-11-16T10:10:12.541Z,11.68
2022-11-16T10:11:14.386Z,12.26
2022-11-16T10:12:16.175Z,11.15
2022-11-16T10:13:18.011Z,12.77
2022-11-16T10:14:19.810Z,15.09
2022-11-16T10:15:21.690Z,11.43
2022-11-16T10:16:23.514Z,10.71
2022-11-16T10:17:25.314Z,12.48
2022-11-16T10:18:27.148Z,13.35
2022-11-16T10:19:28.981Z,12.53
2022-11-16T10:20:31.308Z,10.86
2022-11-16T10:21:33.274Z,12.01
2022-11-16T10:22:35.143Z,11.34
2022-11-16T10:23:37.039Z,10.05
2022-11-16T10:24:39.069Z,10.87
2022-11-16T10:25:40.908Z,11.21
2022-11-16T10:26:42.920Z,10.57
2022-11-16T10:27:44.721Z,10.31
2022-11-16T10:28:46.551Z,11.60
2022-11-16T10:29:48.355Z,11.53
2022-11-16T10:30:50.316Z,12.25
2022-11-16T10:31:52.130Z,13.72
2022-11-16T10:32:53.954Z,10.40
2022-11-16T10:33:55.776Z,10.13
2022-11-16T10:34:57.651Z,10.57
2022-11-16T10:35:59.521Z,10.33
2022-11-16T10:37:01.376Z,10.01
2022-11-16T10:38:03.195Z,8.82
2022-11-16T10:39:04.997Z,7.95
2022-11-16T10:40:07.119Z,7.34
2022-11-16T10:41:08.966Z,6.67
2022-11-16T10:42:10.770Z,8.75
2022-11-16T10:43:12.574Z,8.07
2022-11-16T10:44:14.395Z,8.41
2022-11-16T10:45:16.227Z,8.89
2022-11-16T10:46:18.085Z,8.98
2022-11-16T10:47:19.885Z,9.29
2022-11-16T10:48:21.699Z,11.93
2022-11-16T10:49:23.516Z,11.51
2022-11-16T10:50:25.340Z,9.55
2022-11-16T10:51:27.289Z,8.13
2022-11-16T10:52:29.105Z,7.38
2022-11-16T10:53:31.037Z,9.75
2022-11-16T10:54:32.951Z,15.39
2022-11-16T10:55:34.757Z,14.54
2022-11-16T10:56:36.731Z,14.75
2022-11-16T10:57:38.544Z,36.43
2022-11-16T10:58:40.361Z,51.56
2022-11-16T10:59:42.179Z,42.81
2022-11-16T11:00:44.125Z,53.51
2022-11-16T11:01:45.947Z,20.65
2022-11-16T11:02:47.794Z,14.11
2022-11-16T11:03:49.618Z,14.21
2022-11-16T11:04:51.443Z,13.55
2022-11-16T11:05:53.269Z,12.89
2022-11-16T11:06:55.370Z,12.19
2022-11-16T11:07:59.693Z,10.31
2022-11-16T11:09:00.841Z,8.11
2022-11-16T11:10:02.813Z,9.13
2022-11-16T11:11:04.713Z,8.91
2022-11-16T11:12:06.618Z,8.60
2022-11-16T11:13:08.414Z,10.93
2022-11-16T11:14:10.215Z,9.07
2022-11-16T11:15:12.030Z,8.79
2022-11-16T11:16:14.565Z,10.29
2022-11-16T11:17:16.398Z,9.49
2022-11-16T11:18:18.252Z,10.60
2022-11-16T11:19:20.047Z,9.26
2022-11-16T11:20:21.883Z,9.77
2022-11-16T11:21:23.686Z,11.32
2022-11-16T11:22:25.560Z,10.58
2022-11-16T11:23:27.379Z,12.53
2022-11-16T11:24:45.103Z,12.21
2022-11-16T11:25:32.924Z,9.67
2022-11-16T11:26:37.018Z,12.02
2022-11-16T11:27:38.456Z,8.36
2022-11-16T11:28:40.264Z,8.01
2022-11-16T11:29:42.073Z,8.69
2022-11-16T11:30:44.005Z,9.17
2022-11-16T11:31:45.832Z,8.57
2022-11-16T11:32:47.708Z,8.99
2022-11-16T11:33:49.493Z,10.46
2022-11-16T11:34:51.333Z,10.09
2022-11-16T11:35:53.095Z,9.23
2022-11-16T11:36:54.916Z,10.34
2022-11-16T11:37:56.809Z,9.05
2022-11-16T11:38:58.697Z,11.15
2022-11-16T11:40:00.579Z,11.43
2022-11-16T11:41:03.087Z,12.64
2022-11-16T11:42:04.886Z,10.19
2022-11-16T11:43:06.730Z,11.58
2022-11-16T11:44:08.521Z,9.98
2022-11-16T11:45:10.245Z,9.41
2022-11-16T11:46:12.186Z,11.29
2022-11-16T11:47:56.137Z,12.16
2022-11-16T11:48:17.630Z,10.84
2022-11-16T11:49:19.422Z,14.65
2022-11-16T11:50:21.299Z,12.37
2022-11-16T11:51:23.134Z,13.08
2022-11-16T11:52:24.957Z,11.79
2022-11-16T11:53:27.131Z,17.91
2022-11-16T11:54:28.967Z,25.83
2022-11-16T11:55:31.003Z,21.26
2022-11-16T11:56:32.842Z,17.42
2022-11-16T11:57:34.772Z,17.29
2022-11-16T11:58:36.643Z,18.23
2022-11-16T11:59:38.457Z,17.57
2022-11-16T12:00:40.305Z,12.92
2022-11-16T12:01:42.125Z,14.19
2022-11-16T12:02:44.028Z,12.29
2022-11-16T12:03:45.884Z,12.14
2022-11-16T12:04:47.740Z,14.14
2022-11-16T12:05:49.561Z,13.30
2022-11-16T12:06:51.744Z,14.29
2022-11-16T12:07:53.583Z,14.23
2022-11-16T12:08:55.704Z,14.44
2022-11-16T12:09:57.498Z,14.95
2022-11-16T12:10:59.373Z,12.09
2022-11-16T12:12:01.254Z,13.58
2022-11-16T12:13:03.090Z,12.98
2022-11-16T12:14:04.908Z,13.91
2022-11-16T12:15:06.807Z,12.80
2022-11-16T12:16:08.758Z,17.33
2022-11-16T12:17:10.591Z,24.93
2022-11-16T12:18:12.402Z,17.51
2022-11-16T12:19:14.440Z,15.47
2022-11-16T12:20:16.278Z,15.88
2022-11-16T12:21:18.111Z,13.31
2022-11-16T12:22:19.956Z,11.41
2022-11-16T12:23:21.922Z,13.52
2022-11-16T12:24:23.822Z,14.67
2022-11-16T12:25:25.619Z,14.78
2022-11-16T12:26:27.459Z,14.95
2022-11-16T12:27:29.300Z,14.73
2022-11-16T12:28:31.117Z,14.87
2022-11-16T12:29:33.001Z,15.91
2022-11-16T12:30:34.844Z,20.64
2022-11-16T12:31:36.623Z,23.80
2022-11-16T12:32:38.432Z,27.58
2022-11-16T12:33:40.242Z,29.48
2022-11-16T12:34:42.085Z,25.47
2022-11-16T12:35:44.966Z,22.98
2022-11-16T12:36:46.965Z,24.91
2022-11-16T12:37:48.770Z,25.72
2022-11-16T12:38:50.716Z,21.01
2022-11-16T12:39:52.763Z,28.08
2022-11-16T12:40:54.639Z,23.65
2022-11-16T12:41:56.485Z,24.31
2022-11-16T12:42:58.334Z,21.74
2022-11-16T12:44:00.164Z,24.67
2022-11-16T12:45:02.025Z,28.23
2022-11-16T12:46:03.851Z,23.81
2022-11-16T12:47:05.700Z,19.69
2022-11-16T12:48:07.509Z,20.77
2022-11-16T12:49:09.332Z,19.65
2022-11-16T12:50:11.437Z,16.77
2022-11-16T12:51:13.278Z,13.93
2022-11-16T12:52:15.095Z,13.81
2022-11-16T12:53:16.935Z,13.92
2022-11-16T12:54:18.782Z,15.52
2022-11-16T12:55:26.784Z,15.39
2022-11-16T12:56:25.589Z,15.26
2022-11-16T12:57:27.422Z,16.60
2022-11-16T12:58:29.256Z,15.73
2022-11-16T12:59:31.039Z,16.69
2022-11-16T13:00:32.930Z,14.78
2022-11-16T13:01:34.870Z,16.69
2022-11-16T13:02:36.771Z,19.69
2022-11-16T13:03:38.638Z,22.21
2022-11-16T13:04:40.440Z,21.54
2022-11-16T13:05:42.309Z,21.01
2022-11-16T13:06:44.116Z,23.91
2022-11-16T13:07:45.988Z,21.77
2022-11-16T13:08:47.884Z,20.19
2022-11-16T13:09:49.810Z,20.83
2022-11-16T13:10:52.066Z,24.46
2022-11-16T13:11:53.887Z,24.31
2022-11-16T13:13:09.010Z,33.01
2022-11-16T13:13:59.843Z,30.96
2022-11-16T13:15:02.161Z,39.05
2022-11-16T13:16:04.071Z,35.31
2022-11-16T13:17:05.891Z,31.98
2022-11-16T13:18:07.751Z,26.91
2022-11-16T13:19:09.612Z,27.04
2022-11-16T13:20:14.504Z,26.12